createdAt,value
2019-05-23T00:00:35.064Z,67.11
2019-05-23T00:03:06.055Z,66.87
2019-05-23T00:05:42.431Z,66.69
2019-05-23T00:08:15.559Z,66.51
2019-05-23T00:10:53.377Z,66.53
2019-05-23T00:13:45.743Z,66.50
2019-05-23T00:16:18.056Z,66.50
2019-05-23T00:18:49.175Z,66.59
2019-05-23T00:21:21.089Z,66.74
2019-05-23T00:23:52.677Z,66.80
2019-05-23T00:26:26.916Z,66.99
2019-05-23T00:29:09.543Z,67.05
2019-05-23T00:31:45.456Z,66.97
2019-05-23T00:34:16.684Z,67.00
2019-05-23T00:36:46.859Z,67.05
2019-05-23T00:39:19.532Z,67.03
2019-05-23T00:41:49.648Z,67.09
2019-05-23T00:44:20.865Z,67.04
2019-05-23T00:46:50.988Z,67.10
2019-05-23T00:49:21.395Z,67.17
2019-05-23T00:51:52.734Z,67.28
2019-05-23T00:54:23.390Z,67.55
2019-05-23T00:56:54.843Z,67.85
2019-05-23T00:59:27.878Z,68.23
2019-05-23T01:02:00.060Z,68.44
2019-05-23T01:04:30.115Z,68.61
2019-05-23T01:07:00.198Z,68.61
2019-05-23T01:09:31.478Z,68.59
2019-05-23T01:12:02.179Z,68.53
2019-05-23T01:14:34.207Z,68.49
2019-05-23T01:17:05.734Z,68.45
2019-05-23T01:19:37.089Z,68.27
2019-05-23T01:22:10.436Z,68.37
2019-05-23T01:24:43.528Z,68.13
2019-05-23T01:27:15.270Z,68.08
2019-05-23T01:29:49.934Z,68.03
2019-05-23T01:32:36.708Z,68.08
2019-05-23T01:35:09.013Z,68.20
2019-05-23T01:37:41.353Z,68.37
2019-05-23T01:40:13.615Z,68.52
2019-05-23T01:42:44.071Z,68.79
2019-05-23T01:45:17.623Z,68.89
2019-05-23T01:47:50.303Z,69.05
2019-05-23T01:50:23.754Z,69.18
2019-05-23T01:52:55.067Z,69.27
2019-05-23T01:55:25.623Z,69.37
2019-05-23T01:57:55.735Z,69.52
2019-05-23T02:00:29.755Z,69.69
2019-05-23T02:03:01.556Z,69.81
2019-05-23T02:05:31.855Z,69.96
2019-05-23T02:08:02.066Z,70.10
2019-05-23T02:10:32.685Z,70.30
2019-05-23T02:13:03.986Z,70.44
2019-05-23T02:15:34.849Z,70.61
2019-05-23T02:18:06.022Z,70.83
2019-05-23T02:20:37.128Z,71.04
2019-05-23T02:23:07.776Z,71.05
2019-05-23T02:25:38.383Z,71.11
2019-05-23T02:28:10.368Z,71.09
2019-05-23T02:30:41.000Z,71.20
2019-05-23T02:33:12.836Z,71.27
2019-05-23T02:35:43.313Z,71.30
2019-05-23T02:38:31.311Z,71.34
2019-05-23T02:41:16.832Z,71.38
2019-05-23T02:43:49.539Z,71.46
2019-05-23T02:46:25.946Z,71.57
2019-05-23T02:48:59.196Z,71.59
2019-05-23T02:51:31.182Z,71.62
2019-05-23T02:54:01.995Z,71.62
2019-05-23T02:56:36.081Z,71.59
2019-05-23T02:59:35.318Z,71.51
2019-05-23T03:02:38.383Z,71.32
2019-05-23T03:05:12.111Z,71.19
2019-05-23T03:07:44.641Z,71.15
2019-05-23T03:10:16.676Z,71.13
2019-05-23T03:12:49.550Z,71.13
2019-05-23T03:15:19.674Z,71.03
2019-05-23T03:17:58.302Z,70.89
2019-05-23T03:20:29.785Z,70.80
2019-05-23T03:23:12.307Z,70.72
2019-05-23T03:26:21.261Z,70.61
2019-05-23T03:28:52.320Z,70.68
2019-05-23T03:31:32.218Z,70.85
2019-05-23T03:34:02.187Z,70.82
2019-05-23T03:36:33.132Z,70.89
2019-05-23T03:39:07.529Z,70.81
2019-05-23T03:41:39.412Z,70.75
2019-05-23T03:44:10.121Z,70.63
2019-05-23T03:46:44.811Z,70.68
2019-05-23T03:49:16.235Z,70.64
2019-05-23T03:51:46.799Z,70.45
2019-05-23T03:54:18.701Z,70.49
2019-05-23T03:56:49.657Z,70.39
2019-05-23T03:59:20.357Z,70.45
2019-05-23T04:01:52.461Z,70.50
2019-05-23T04:04:22.482Z,70.55
2019-05-23T04:06:52.659Z,70.70
2019-05-23T04:09:23.856Z,70.74
2019-05-23T04:11:54.134Z,70.76
2019-05-23T04:14:25.173Z,70.68
2019-05-23T04:16:55.644Z,70.71
2019-05-23T04:19:26.989Z,70.75
2019-05-23T04:21:57.416Z,70.80
2019-05-23T04:24:27.496Z,70.82
2019-05-23T04:26:58.289Z,70.84
2019-05-23T04:29:28.386Z,70.83
2019-05-23T04:32:07.889Z,70.84
2019-05-23T04:34:30.512Z,70.99
2019-05-23T04:37:00.622Z,70.98
2019-05-23T04:39:31.061Z,70.83
2019-05-23T04:42:02.388Z,70.79
2019-05-23T04:44:32.616Z,70.82
2019-05-23T04:47:03.039Z,70.71
2019-05-23T04:49:33.516Z,70.73
2019-05-23T04:52:04.783Z,70.67
2019-05-23T04:54:36.136Z,70.68
2019-05-23T04:57:07.253Z,70.71
2019-05-23T04:59:37.825Z,70.61
2019-05-23T05:02:24.740Z,70.60
2019-05-23T05:04:40.719Z,70.54
2019-05-23T05:07:11.098Z,70.54
2019-05-23T05:09:41.221Z,70.40
2019-05-23T05:12:13.136Z,70.28
2019-05-23T05:14:43.207Z,70.12
2019-05-23T05:17:17.469Z,70.03
2019-05-23T05:19:47.649Z,69.80
2019-05-23T05:22:18.395Z,69.67
2019-05-23T05:24:52.735Z,69.47
2019-05-23T05:27:23.452Z,69.21
2019-05-23T05:29:53.522Z,68.68
2019-05-23T05:32:23.746Z,68.24
2019-05-23T05:34:54.025Z,67.98
2019-05-23T05:37:24.169Z,67.86
2019-05-23T05:39:54.707Z,67.96
2019-05-23T05:42:24.828Z,67.83
2019-05-23T05:44:54.885Z,67.60
2019-05-23T05:47:26.194Z,67.50
2019-05-23T05:49:56.525Z,67.31
2019-05-23T05:52:27.019Z,67.09
2019-05-23T05:55:00.422Z,66.71
2019-05-23T05:57:28.795Z,66.40
2019-05-23T05:59:59.843Z,66.07
2019-05-23T06:02:30.255Z,66.14
2019-05-23T06:05:00.664Z,65.79
2019-05-23T06:07:34.280Z,65.58
2019-05-23T06:10:09.126Z,65.52
2019-05-23T06:12:40.528Z,64.22
2019-05-23T06:15:12.808Z,63.70
2019-05-23T06:17:50.331Z,62.36
2019-05-23T06:20:22.610Z,62.36
2019-05-23T06:22:54.273Z,60.36
2019-05-23T06:25:25.990Z,59.29
2019-05-23T06:27:58.249Z,59.33
2019-05-23T06:30:32.691Z,59.33
2019-05-23T06:33:21.342Z,58.09
2019-05-23T06:35:36.591Z,57.95
2019-05-23T06:38:09.205Z,56.94
2019-05-23T06:40:41.947Z,57.07
2019-05-23T06:43:16.259Z,56.27
2019-05-23T06:45:48.328Z,55.75
2019-05-23T06:48:20.662Z,55.29
2019-05-23T06:50:52.637Z,54.88
2019-05-23T06:53:24.805Z,54.32
2019-05-23T06:55:57.532Z,54.49
2019-05-23T06:58:30.594Z,53.46
2019-05-23T07:01:03.326Z,53.15
2019-05-23T07:03:42.378Z,53.03
2019-05-23T07:06:11.612Z,50.81
2019-05-23T07:08:43.859Z,50.91
2019-05-23T07:11:17.771Z,51.23
2019-05-23T07:13:49.756Z,50.27
2019-05-23T07:16:22.082Z,50.54
2019-05-23T07:18:56.672Z,49.57
2019-05-23T07:21:27.692Z,49.69
2019-05-23T07:23:58.408Z,49.28
2019-05-23T07:26:30.225Z,49.25
2019-05-23T07:29:02.193Z,48.53
2019-05-23T07:31:35.610Z,47.99
2019-05-23T07:34:08.862Z,48.01
2019-05-23T07:36:41.900Z,47.81
2019-05-23T07:39:14.143Z,47.43
2019-05-23T07:41:46.639Z,47.35
2019-05-23T07:44:19.863Z,47.59
2019-05-23T07:46:51.156Z,46.37
2019-05-23T07:49:23.852Z,46.06
2019-05-23T07:51:56.678Z,45.46
2019-05-23T07:54:33.883Z,45.29
2019-05-23T07:57:09.323Z,45.30
2019-05-23T07:59:41.310Z,46.36
2019-05-23T08:02:25.784Z,45.64
2019-05-23T08:04:54.794Z,45.68
2019-05-23T08:07:26.451Z,45.23
2019-05-23T08:09:56.826Z,45.44
2019-05-23T08:12:27.417Z,46.05
2019-05-23T08:14:58.252Z,44.98
2019-05-23T08:17:28.615Z,44.81
2019-05-23T08:19:59.350Z,43.75
2019-05-23T08:22:29.734Z,43.86
2019-05-23T08:24:59.858Z,43.37
2019-05-23T08:27:30.403Z,42.32
2019-05-23T08:30:02.375Z,41.63
2019-05-23T08:32:32.782Z,42.18
2019-05-23T08:35:03.673Z,42.11
2019-05-23T08:37:34.208Z,40.58
2019-05-23T08:40:07.735Z,40.54
2019-05-23T08:42:38.072Z,40.48
2019-05-23T08:45:09.779Z,40.53
2019-05-23T08:47:40.137Z,40.16
2019-05-23T08:50:12.076Z,40.01
2019-05-23T08:52:42.540Z,39.63
2019-05-23T08:55:20.297Z,39.63
2019-05-23T08:57:50.737Z,39.56
2019-05-23T09:00:22.840Z,39.89
2019-05-23T09:02:58.041Z,39.47
2019-05-23T09:05:28.559Z,39.44
2019-05-23T09:08:00.418Z,39.11
2019-05-23T09:10:31.540Z,38.30
2019-05-23T09:13:02.083Z,39.02
2019-05-23T09:15:32.450Z,39.37
2019-05-23T09:18:02.724Z,38.91
2019-05-23T09:20:33.909Z,39.76
2019-05-23T09:23:04.044Z,39.05
2019-05-23T09:25:36.976Z,39.03
2019-05-23T09:28:08.177Z,38.84
2019-05-23T09:30:38.652Z,38.63
2019-05-23T09:33:10.065Z,38.75
2019-05-23T09:35:40.596Z,38.50
2019-05-23T09:38:10.715Z,37.62
2019-05-23T09:40:40.858Z,35.75
2019-05-23T09:43:11.020Z,35.21
2019-05-23T09:45:41.384Z,35.00
2019-05-23T09:48:11.504Z,33.15
2019-05-23T09:50:41.581Z,32.61
2019-05-23T09:53:11.727Z,32.51
2019-05-23T09:55:41.972Z,31.90
2019-05-23T09:58:12.778Z,30.54
2019-05-23T10:00:43.647Z,29.50
2019-05-23T10:03:14.285Z,28.57
2019-05-23T10:05:44.577Z,28.86
2019-05-23T10:08:15.131Z,28.79
2019-05-23T10:10:45.643Z,28.47
2019-05-23T10:13:16.080Z,28.96
2019-05-23T10:16:01.536Z,28.41
2019-05-23T10:18:31.824Z,28.37
2019-05-23T10:21:01.930Z,27.31
2019-05-23T10:23:33.477Z,27.10
2019-05-23T10:26:03.929Z,27.53
2019-05-23T10:28:34.124Z,28.55
2019-05-23T10:31:07.034Z,28.07
2019-05-23T10:33:37.971Z,27.50
2019-05-23T10:36:08.612Z,27.33
2019-05-23T10:38:38.757Z,28.35
2019-05-23T10:41:09.386Z,27.90
2019-05-23T10:43:44.077Z,27.66
2019-05-23T10:46:16.806Z,28.01
2019-05-23T10:48:56.645Z,28.06
2019-05-23T10:51:26.900Z,28.00
2019-05-23T10:53:58.264Z,28.14
2019-05-23T10:56:29.668Z,27.85
2019-05-23T10:58:59.829Z,28.05
2019-05-23T11:01:33.625Z,29.55
2019-05-23T11:04:05.658Z,30.59
2019-05-23T11:06:36.809Z,31.65
2019-05-23T11:09:12.495Z,31.37
2019-05-23T11:11:42.747Z,30.89
2019-05-23T11:14:14.318Z,29.95
2019-05-23T11:16:50.349Z,30.63
2019-05-23T11:19:23.492Z,30.40
2019-05-23T11:21:56.635Z,29.70
2019-05-23T11:24:41.370Z,30.19
2019-05-23T11:27:11.946Z,30.21
2019-05-23T11:29:45.154Z,29.73
2019-05-23T11:32:19.797Z,29.22
2019-05-23T11:34:55.428Z,30.21
2019-05-23T11:37:25.834Z,30.62
2019-05-23T11:39:57.753Z,30.88
2019-05-23T11:42:28.415Z,29.82
2019-05-23T11:44:58.565Z,29.15
2019-05-23T11:47:31.932Z,29.23
2019-05-23T11:50:02.357Z,28.98
2019-05-23T11:52:34.403Z,29.42
2019-05-23T11:55:04.542Z,29.98
2019-05-23T11:57:39.235Z,30.45
2019-05-23T12:00:11.686Z,30.79
2019-05-23T12:02:45.600Z,31.87
2019-05-23T12:05:24.320Z,31.76
2019-05-23T12:07:59.403Z,29.95
2019-05-23T12:10:29.826Z,29.49
2019-05-23T12:13:01.322Z,29.91
2019-05-23T12:15:33.856Z,30.93
2019-05-23T12:18:11.942Z,31.10
2019-05-23T12:20:42.157Z,31.24
2019-05-23T12:23:12.536Z,29.83
2019-05-23T12:25:45.802Z,29.92
2019-05-23T12:28:16.363Z,29.56
2019-05-23T12:30:47.077Z,29.36
2019-05-23T12:33:17.162Z,30.66
2019-05-23T12:35:47.556Z,31.23
2019-05-23T12:38:18.050Z,31.68
2019-05-23T12:40:48.682Z,32.49
2019-05-23T12:43:18.914Z,31.83
2019-05-23T12:45:49.052Z,31.43
2019-05-23T12:48:48.734Z,31.79
2019-05-23T12:51:26.104Z,31.17
2019-05-23T12:53:56.638Z,30.59
2019-05-23T12:56:27.332Z,30.07
2019-05-23T12:58:57.436Z,29.37
2019-05-23T13:01:29.116Z,30.18
2019-05-23T13:03:59.638Z,29.98
2019-05-23T13:06:29.668Z,30.69
2019-05-23T13:08:59.810Z,29.84
2019-05-23T13:11:30.359Z,28.93
2019-05-23T13:14:00.404Z,27.97
2019-05-23T13:16:31.478Z,28.78
2019-05-23T13:19:01.607Z,30.37
2019-05-23T13:21:32.041Z,30.56
2019-05-23T13:24:02.451Z,30.64
2019-05-23T13:26:32.568Z,30.50
2019-05-23T13:29:03.384Z,30.35
2019-05-23T13:31:34.131Z,30.48
2019-05-23T13:34:04.221Z,31.36
2019-05-23T13:36:34.853Z,32.09
2019-05-23T13:39:09.679Z,32.82
2019-05-23T13:41:39.882Z,32.70
2019-05-23T13:44:09.901Z,32.55
2019-05-23T13:46:40.110Z,32.12
2019-05-23T13:49:10.310Z,30.52
2019-05-23T13:51:40.788Z,29.78
2019-05-23T13:54:11.020Z,29.07
2019-05-23T13:56:41.323Z,29.22
2019-05-23T13:59:11.887Z,29.42
2019-05-23T14:01:43.947Z,29.73
2019-05-23T14:04:15.001Z,30.12
2019-05-23T14:06:45.016Z,30.40
2019-05-23T14:09:17.631Z,30.97
2019-05-23T14:11:47.714Z,32.30
2019-05-23T14:14:18.291Z,32.19
2019-05-23T14:17:10.469Z,31.56
2019-05-23T14:19:40.791Z,31.76
2019-05-23T14:22:10.929Z,31.51
2019-05-23T14:24:41.353Z,31.58
2019-05-23T14:27:27.072Z,31.54
2019-05-23T14:29:57.356Z,31.30
2019-05-23T14:32:45.088Z,31.16
2019-05-23T14:35:18.927Z,31.69
2019-05-23T14:37:51.412Z,31.72
2019-05-23T14:40:21.701Z,31.64
2019-05-23T14:43:09.783Z,32.07
2019-05-23T14:46:08.238Z,33.06
2019-05-23T14:49:03.432Z,33.00
2019-05-23T14:51:53.689Z,32.62
2019-05-23T14:54:33.990Z,32.68
2019-05-23T14:57:05.295Z,33.78
2019-05-23T14:59:35.808Z,34.39
2019-05-23T15:02:08.445Z,34.57
2019-05-23T15:04:38.697Z,34.90
2019-05-23T15:07:08.840Z,35.38
2019-05-23T15:09:39.225Z,35.89
2019-05-23T15:12:10.517Z,36.29
2019-05-23T15:14:40.526Z,36.42
2019-05-23T15:17:11.255Z,36.78
2019-05-23T15:19:45.126Z,36.37
2019-05-23T15:22:14.597Z,36.67
2019-05-23T15:24:45.044Z,36.48
2019-05-23T15:27:16.173Z,37.06
2019-05-23T15:29:46.721Z,36.46
2019-05-23T15:32:16.848Z,36.36
2019-05-23T15:34:46.986Z,36.53
2019-05-23T15:37:17.716Z,36.60
2019-05-23T15:39:48.031Z,36.53
2019-05-23T15:42:18.632Z,36.94
2019-05-23T15:44:48.897Z,36.52
2019-05-23T15:47:20.879Z,36.46
2019-05-23T15:49:55.832Z,36.33
2019-05-23T15:52:50.168Z,36.51
2019-05-23T15:55:29.724Z,36.52
2019-05-23T15:58:07.944Z,35.44
2019-05-23T16:00:51.873Z,34.29
2019-05-23T16:03:39.418Z,34.13
2019-05-23T16:06:12.879Z,34.31
2019-05-23T16:08:44.507Z,34.70
2019-05-23T16:11:17.510Z,34.67
2019-05-23T16:13:47.375Z,34.01
2019-05-23T16:16:18.834Z,33.85
2019-05-23T16:18:49.315Z,33.31
2019-05-23T16:21:20.106Z,33.09
2019-05-23T16:23:50.829Z,32.52
2019-05-23T16:26:23.122Z,32.24
2019-05-23T16:28:53.309Z,32.60
2019-05-23T16:31:23.896Z,32.22
2019-05-23T16:33:54.460Z,31.68
2019-05-23T16:36:25.367Z,31.33
2019-05-23T16:38:56.068Z,31.51
2019-05-23T16:41:26.431Z,32.31
2019-05-23T16:43:56.667Z,33.21
2019-05-23T16:46:27.055Z,33.83
2019-05-23T16:48:57.473Z,34.31
2019-05-23T16:51:27.763Z,34.46
2019-05-23T16:53:58.346Z,34.29
2019-05-23T16:56:45.908Z,34.54
2019-05-23T16:59:25.122Z,34.48
2019-05-23T17:02:12.827Z,34.28
2019-05-23T17:04:48.395Z,34.82
2019-05-23T17:07:52.532Z,35.30
2019-05-23T17:10:40.538Z,35.73
2019-05-23T17:13:41.706Z,36.10
2019-05-23T17:16:30.032Z,36.47
2019-05-23T17:19:22.199Z,36.90
2019-05-23T17:22:01.609Z,36.84
2019-05-23T17:24:40.604Z,37.06
2019-05-23T17:27:33.689Z,37.36
2019-05-23T17:30:41.076Z,37.25
2019-05-23T17:33:12.633Z,37.03
2019-05-23T17:35:42.710Z,37.33
2019-05-23T17:38:12.909Z,37.73
2019-05-23T17:40:44.001Z,37.57
2019-05-23T17:43:22.089Z,37.59
2019-05-23T17:46:06.228Z,37.85
2019-05-23T17:48:36.322Z,37.81
2019-05-23T17:51:06.385Z,38.31
2019-05-23T17:53:36.498Z,38.30
2019-05-23T17:56:06.771Z,38.47
2019-05-23T17:58:37.019Z,38.45
2019-05-23T18:01:08.562Z,38.68
2019-05-23T18:03:38.741Z,38.60
2019-05-23T18:06:09.451Z,38.72
2019-05-23T18:08:39.750Z,38.60
2019-05-23T18:11:10.332Z,38.53
2019-05-23T18:13:40.650Z,38.10
2019-05-23T18:16:12.182Z,37.81
2019-05-23T18:18:43.300Z,37.07
2019-05-23T18:21:13.881Z,36.56
2019-05-23T18:23:44.743Z,36.19
2019-05-23T18:26:14.764Z,35.88
2019-05-23T18:28:45.523Z,36.11
2019-05-23T18:31:21.799Z,35.65
2019-05-23T18:33:53.734Z,35.81
2019-05-23T18:36:24.550Z,36.18
2019-05-23T18:38:55.000Z,36.43
2019-05-23T18:41:26.010Z,36.79
2019-05-23T18:43:58.335Z,37.21
2019-05-23T18:46:37.183Z,37.58
2019-05-23T18:49:07.973Z,37.85
2019-05-23T18:51:41.243Z,38.06
2019-05-23T18:54:11.484Z,38.66
2019-05-23T18:56:41.804Z,38.91
2019-05-23T18:59:15.649Z,39.40
2019-05-23T19:01:45.767Z,39.95
2019-05-23T19:04:16.680Z,40.26
2019-05-23T19:06:47.032Z,40.56
2019-05-23T19:09:20.920Z,41.13
2019-05-23T19:11:51.411Z,41.67
2019-05-23T19:14:21.772Z,41.83
2019-05-23T19:16:52.460Z,41.70
2019-05-23T19:19:25.010Z,41.90
2019-05-23T19:21:56.294Z,42.12
2019-05-23T19:24:27.701Z,42.20
2019-05-23T19:27:01.215Z,42.82
2019-05-23T19:29:41.469Z,44.03
2019-05-23T19:32:13.825Z,44.91
2019-05-23T19:34:45.208Z,45.11
2019-05-23T19:37:16.124Z,45.14
2019-05-23T19:39:46.306Z,45.57
2019-05-23T19:42:21.433Z,46.35
2019-05-23T19:44:51.573Z,46.30
2019-05-23T19:47:24.972Z,46.10
2019-05-23T19:49:55.287Z,46.05
2019-05-23T19:52:25.621Z,46.34
2019-05-23T19:54:56.086Z,46.75
2019-05-23T19:57:30.617Z,46.59
2019-05-23T20:00:00.367Z,47.46
2019-05-23T20:02:49.242Z,48.27
2019-05-23T20:05:26.923Z,48.11
2019-05-23T20:07:58.024Z,48.25
2019-05-23T20:10:28.790Z,48.71
2019-05-23T20:13:04.262Z,48.77
2019-05-23T20:15:35.873Z,49.16
2019-05-23T20:18:10.897Z,49.64
2019-05-23T20:20:44.440Z,49.73
2019-05-23T20:23:16.496Z,50.15
2019-05-23T20:25:46.791Z,50.09
2019-05-23T20:28:17.108Z,50.55
2019-05-23T20:30:54.678Z,50.98
2019-05-23T20:33:24.783Z,50.10
2019-05-23T20:35:56.499Z,49.68
2019-05-23T20:38:27.100Z,49.84
2019-05-23T20:40:57.576Z,49.52
2019-05-23T20:43:28.493Z,50.09
2019-05-23T20:45:59.021Z,50.33
2019-05-23T20:48:29.704Z,50.14
2019-05-23T20:51:01.703Z,50.24
2019-05-23T20:53:32.502Z,50.63
2019-05-23T20:56:02.621Z,50.97
2019-05-23T20:58:32.809Z,50.84
2019-05-23T21:01:11.547Z,50.99
2019-05-23T21:03:41.602Z,50.63
2019-05-23T21:06:12.237Z,51.11
2019-05-23T21:08:42.488Z,51.11
2019-05-23T21:11:12.973Z,51.31
2019-05-23T21:13:43.536Z,51.06
2019-05-23T21:16:13.721Z,51.30
2019-05-23T21:18:43.806Z,51.46
2019-05-23T21:21:14.962Z,51.57
2019-05-23T21:23:45.107Z,51.71
2019-05-23T21:26:15.385Z,51.58
2019-05-23T21:28:45.794Z,51.71
2019-05-23T21:31:24.676Z,51.55
2019-05-23T21:33:54.848Z,51.60
2019-05-23T21:36:24.919Z,51.39
2019-05-23T21:38:56.508Z,51.21
2019-05-23T21:41:26.616Z,51.36
2019-05-23T21:43:58.235Z,51.41
2019-05-23T21:46:28.410Z,51.66
2019-05-23T21:48:58.707Z,51.60
2019-05-23T21:51:28.829Z,51.55
2019-05-23T21:53:59.165Z,51.67
2019-05-23T21:56:30.211Z,51.94
2019-05-23T21:59:00.652Z,52.08
2019-05-23T22:01:50.536Z,52.30
2019-05-23T22:04:25.824Z,52.20
2019-05-23T22:07:05.389Z,52.22
2019-05-23T22:09:36.105Z,52.12
2019-05-23T22:12:08.583Z,51.97
2019-05-23T22:14:39.375Z,52.43
2019-05-23T22:17:09.850Z,52.98
2019-05-23T22:19:40.334Z,52.51
2019-05-23T22:22:10.886Z,53.12
2019-05-23T22:24:41.057Z,53.14
2019-05-23T22:27:11.933Z,53.15
2019-05-23T22:29:42.428Z,53.24
2019-05-23T22:32:14.182Z,53.16
2019-05-23T22:35:03.152Z,53.09
2019-05-23T22:37:33.218Z,52.93
2019-05-23T22:40:04.922Z,53.09
2019-05-23T22:42:36.805Z,53.21
2019-05-23T22:45:11.526Z,53.41
2019-05-23T22:47:41.690Z,53.76
2019-05-23T22:50:11.895Z,54.43
2019-05-23T22:52:41.938Z,54.19
2019-05-23T22:55:12.093Z,54.19
2019-05-23T22:57:42.503Z,54.21
2019-05-23T23:00:14.542Z,54.26
2019-05-23T23:02:46.012Z,54.06
2019-05-23T23:05:16.254Z,54.43
2019-05-23T23:07:46.681Z,54.43
2019-05-23T23:10:17.376Z,54.62
2019-05-23T23:12:47.393Z,54.84
2019-05-23T23:15:17.488Z,54.59
2019-05-23T23:17:47.755Z,55.14
2019-05-23T23:20:18.190Z,55.55
2019-05-23T23:22:48.293Z,54.97
2019-05-23T23:25:18.725Z,54.97
2019-05-23T23:27:49.200Z,55.30
2019-05-23T23:30:23.240Z,55.30
2019-05-23T23:32:53.504Z,55.52
2019-05-23T23:35:23.611Z,55.73
2019-05-23T23:37:53.799Z,56.36
2019-05-23T23:40:24.230Z,56.16
2019-05-23T23:42:56.497Z,56.24
2019-05-23T23:45:45.138Z,56.24
2019-05-23T23:48:32.753Z,56.29
2019-05-23T23:51:20.875Z,56.59
2019-05-23T23:54:08.522Z,56.59
2019-05-23T23:56:56.495Z,56.86
2019-05-23T23:59:26.014Z,57.51
